Saint Helen, Michigan
Current Conditions -  °F | °C
As of 4:53 AM on Friday 24 Oct 2014 (Local Time) from KHTL Reporting Station
Overcast Overcast  
Wind Chill: 39°   Ceiling: 4200
Heat Index: 39°   Visibility: 7mi
Dew Point: 38°   Wind: 0mph
Humidity: 96%   Direction: NA
Pressure: 30.04"   Gusts: NA
Location:  44.36°N, 84.42°W
Report Text: KHTL 240853Z AUTO 00000KT 7SM OVC042 04/03 A3004 RMK AO2 SLP179 T00390033 55004
Loading
Personal Weather Stations






























Interactive Weather Map
Tropical Storm Tracking
New forecast layout! Learn more

10-Day Weather Forecast

Advertisements
Track Severe Weather on mobile